Portada
METAR-TAF:

METAR-TAF

Aeroports :

Chișinău, Moldàvia

latitud: 46-55-40N, longitud: 028-55-51E, altitud: 122 m

Observació

L'informe es va fer fa 36 minuts, a les 00:30 UTC
Vent 4 kt del Sud/Sud-Est
Temperatura 2°C
Humitat 87%
Pressió 1010 hPa
Visibilitat 10 km o més
sense núvols per sota de 1500 mi sense presència de cumulonimbus.

METAR: LUKK 230030Z 15004KT CAVOK 02/M00 Q1010 R26/150095 NOSIG

Hora: 03:06 (01:06 UTC)

Pronòstic

L'informe es va fer fa 1 hora i 46 minuts, a les 23:20 UTC
Pronòstic vàlid del 23 a les 00 UTC al 23 a les 24 UTC
Vent 8 kt del Sud
Visibilitat 10 km o més
sense núvols per sota de 1500 mi sense presència de cumulonimbus.
Temporalment
l' 23 a les 01 UTC al 23 a les 07 UTC
Visibilitat: 4000 m
boirina
Temporalment
l' 23 a les 20 UTC al 23 a les 24 UTC
Visibilitat: 4100 m
Cel ennuvolat a una alçada de 800 ft
boirina

TAF: LUKK 222320Z 2300/2324 19008KT CAVOK TEMPO 2301/2307 4000 BR TEMPO 2320/2324 4100 BR BKN008

Observacions i pronòstics meteorològics de més de 4000 aeroports (METAR i TAF).

Les estacions disponibles són els punts grocs i vermells al mapa.

Posi el ratolí al punt desitjat per veure el nom de l'estació.

Feu clic per veure les observacions i els pronòstics meteorològics.

Per canviar el mapa: feu clic els botons verds amb una creu de color negre per apropar; al botó verd amb un guió per allunyar la imatge; o en les fletxes verdes per a mapes adjacents.


METAR-TAF: